DEBBA EDTZ-EDTZ

Flight info

Callsign DEBBA
Flight time 0h 26m
Altitude 4000
Route VFR
Aircraft COL4/L-V/N

Departure

Time 2026-05-09 11:56
Airport Konstanz Airfield (EDTZ)

Arrival

Time 2026-05-09 12:22
Airport Konstanz Airfield (EDTZ)
Time Latitude Longitude Altitude Speed Heading
2026-05-09 11:53 47.50906 9.26125 1659 ft 0 kts 243°
2026-05-09 11:54 47.50894 9.26085 1664 ft 7 kts 253°
2026-05-09 11:54 47.50887 9.26032 1661 ft 4 kts 253°
2026-05-09 11:54 47.50878 9.25986 1654 ft 5 kts 257°
2026-05-09 11:55 47.50869 9.25916 1652 ft 8 kts 257°
2026-05-09 11:56 47.51119 9.27428 1936 ft 82 kts 69°
2026-05-09 11:56 47.51079 9.28271 2195 ft 89 kts 118°
2026-05-09 11:56 47.50750 9.29079 2494 ft 97 kts 117°
2026-05-09 11:57 47.50415 9.30008 2855 ft 105 kts 113°
2026-05-09 11:57 47.50079 9.31068 3103 ft 123 kts 112°
2026-05-09 11:57 47.49684 9.32280 3412 ft 137 kts 115°
2026-05-09 11:57 47.49237 9.33605 3602 ft 156 kts 115°
2026-05-09 11:58 47.48733 9.35127 3614 ft 170 kts 112°
2026-05-09 11:58 47.48718 9.36832 3593 ft 169 kts 67°
2026-05-09 11:58 47.49523 9.38024 3589 ft 166 kts 26°
2026-05-09 11:58 47.50557 9.38769 3603 ft 166 kts 27°
2026-05-09 11:59 47.51238 9.39286 3596 ft 166 kts 26°
2026-05-09 11:59 47.52276 9.40037 3607 ft 166 kts 28°
2026-05-09 11:59 47.53224 9.41014 3592 ft 167 kts 40°
2026-05-09 11:59 47.54042 9.42218 3599 ft 166 kts 47°
2026-05-09 12:00 47.54812 9.43483 3591 ft 165 kts 48°
2026-05-09 12:00 47.55525 9.44805 3594 ft 165 kts 56°
2026-05-09 12:00 47.56108 9.46270 3586 ft 165 kts 59°
2026-05-09 12:00 47.56679 9.47743 3596 ft 165 kts 59°
2026-05-09 12:01 47.57248 9.49224 3595 ft 165 kts 59°
2026-05-09 12:01 47.57816 9.50702 3598 ft 165 kts 59°
2026-05-09 12:01 47.58388 9.52183 3596 ft 165 kts 59°
2026-05-09 12:01 47.58959 9.53662 3598 ft 165 kts 60°
2026-05-09 12:02 47.59531 9.55140 3600 ft 165 kts 59°
2026-05-09 12:02 47.60069 9.56555 3461 ft 155 kts 58°
2026-05-09 12:02 47.60739 9.57737 3182 ft 149 kts 31°
2026-05-09 12:02 47.61720 9.57790 2929 ft 147 kts 336°
2026-05-09 12:03 47.62565 9.56935 2674 ft 144 kts 324°
2026-05-09 12:03 47.63351 9.56084 2515 ft 137 kts 324°
2026-05-09 12:03 47.64148 9.55343 2361 ft 135 kts 333°
2026-05-09 12:03 47.65013 9.54914 2196 ft 125 kts 350°
2026-05-09 12:04 47.65807 9.54920 2005 ft 100 kts
2026-05-09 12:04 47.66454 9.55042 1857 ft 89 kts
2026-05-09 12:04 47.67045 9.54973 1816 ft 85 kts 346°
2026-05-09 12:04 47.67571 9.54624 1785 ft 83 kts 320°
2026-05-09 12:05 47.67941 9.53959 1774 ft 87 kts 288°
2026-05-09 12:05 47.67866 9.53074 1551 ft 88 kts 244°
2026-05-09 12:05 47.67580 9.52309 1388 ft 82 kts 241°
2026-05-09 12:05 47.67325 9.51643 1356 ft 63 kts 240°
2026-05-09 12:06 47.67173 9.51254 1356 ft 17 kts 241°
2026-05-09 12:06 47.67212 9.51135 1355 ft 13 kts 319°
2026-05-09 12:06 47.67276 9.51059 1356 ft 10 kts 320°
2026-05-09 12:06 47.67327 9.50995 1355 ft 11 kts 322°
2026-05-09 12:07 47.67407 9.50927 1350 ft 16 kts 328°
2026-05-09 12:07 47.67450 9.50892 1352 ft 0 kts 329°
2026-05-09 12:08 47.67466 9.50879 1349 ft 9 kts 332°
2026-05-09 12:08 47.67470 9.50875 1349 ft 0 kts 333°
2026-05-09 12:09 47.67511 9.50843 1349 ft 4 kts 332°
2026-05-09 12:09 47.67531 9.50826 1349 ft 3 kts 329°
2026-05-09 12:09 47.67540 9.50820 1350 ft 0 kts 343°
2026-05-09 12:10 47.67566 9.50807 1352 ft 0 kts 331°
2026-05-09 12:12 47.67521 9.50828 1350 ft 378 kts 148°
2026-05-09 12:13 47.67190 9.51164 1356 ft 4 kts 144°
2026-05-09 12:13 47.67148 9.51179 1356 ft 8 kts 223°
2026-05-09 12:13 47.67025 9.50871 1348 ft 65 kts 240°
2026-05-09 12:13 47.66733 9.50110 1470 ft 93 kts 240°
2026-05-09 12:14 47.66399 9.49273 1763 ft 97 kts 238°
2026-05-09 12:14 47.66035 9.48375 2017 ft 105 kts 243°
2026-05-09 12:14 47.65883 9.47310 2271 ft 112 kts 274°
2026-05-09 12:14 47.66061 9.46077 2521 ft 132 kts 283°
2026-05-09 12:15 47.66234 9.44651 2739 ft 144 kts 276°
2026-05-09 12:15 47.66294 9.43141 2948 ft 151 kts 273°
2026-05-09 12:15 47.66439 9.41572 3147 ft 156 kts 283°
2026-05-09 12:15 47.66746 9.40002 3296 ft 160 kts 289°
2026-05-09 12:16 47.67074 9.38396 3465 ft 165 kts 285°
2026-05-09 12:16 47.67379 9.36704 3491 ft 174 kts 286°
2026-05-09 12:16 47.67696 9.34962 3496 ft 176 kts 285°
2026-05-09 12:16 47.68012 9.33222 3496 ft 174 kts 285°
2026-05-09 12:17 47.68325 9.31501 3496 ft 173 kts 285°
2026-05-09 12:17 47.68636 9.29783 3495 ft 172 kts 285°
2026-05-09 12:17 47.68946 9.28075 3494 ft 171 kts 285°
2026-05-09 12:17 47.69254 9.26375 3485 ft 169 kts 285°
2026-05-09 12:18 47.69557 9.24721 3381 ft 166 kts 285°
2026-05-09 12:18 47.69853 9.23097 3204 ft 160 kts 285°
2026-05-09 12:18 47.70138 9.21525 3021 ft 156 kts 285°
2026-05-09 12:18 47.70410 9.20026 2995 ft 145 kts 285°
2026-05-09 12:19 47.70664 9.18617 2990 ft 138 kts 285°
2026-05-09 12:19 47.70906 9.17271 2990 ft 133 kts 285°
2026-05-09 12:19 47.71017 9.15936 2977 ft 129 kts 257°
2026-05-09 12:19 47.70726 9.14735 2986 ft 121 kts 237°
2026-05-09 12:20 47.70045 9.14126 2984 ft 114 kts 200°
2026-05-09 12:20 47.69295 9.13678 2937 ft 119 kts 200°
2026-05-09 12:20 47.68526 9.13231 2788 ft 118 kts 200°
2026-05-09 12:20 47.67743 9.12872 2541 ft 122 kts 190°
2026-05-09 12:21 47.66887 9.12712 2298 ft 121 kts 168°
2026-05-09 12:21 47.66569 9.13692 2046 ft 118 kts 83°
2026-05-09 12:21 47.66771 9.14768 1876 ft 106 kts 79°
2026-05-09 12:21 47.66866 9.15778 1764 ft 85 kts 76°
2026-05-09 12:22 47.67287 9.16067 1681 ft 81 kts 324°
2026-05-09 12:22 47.67623 9.15339 1479 ft 86 kts 298°
2026-05-09 12:22 47.67903 9.14575 1348 ft 83 kts 299°
2026-05-09 12:22 47.68129 9.13957 1322 ft 35 kts 296°
2026-05-09 12:23 47.68192 9.13768 1318 ft 11 kts 285°
2026-05-09 12:23 47.68194 9.13696 1317 ft 6 kts 261°
2026-05-09 12:23 47.68187 9.13657 1317 ft 0 kts 248°